sensor_id;sensor_type;location;lat;lon;timestamp;P1;durP1;ratioP1;P2;durP2;ratioP2
15114;SDS011;7658;51.456;7.622;2023-04-23T00:02:25;27.53;;;20.63;;
15114;SDS011;7658;51.456;7.622;2023-04-23T00:04:53;28.40;;;20.97;;
15114;SDS011;7658;51.456;7.622;2023-04-23T00:07:28;31.47;;;21.57;;
15114;SDS011;7658;51.456;7.622;2023-04-23T00:09:55;33.00;;;22.10;;
15114;SDS011;7658;51.456;7.622;2023-04-23T00:12:22;32.07;;;22.73;;
15114;SDS011;7658;51.456;7.622;2023-04-23T00:14:48;32.07;;;23.60;;
15114;SDS011;7658;51.456;7.622;2023-04-23T00:17:14;36.17;;;25.87;;
15114;SDS011;7658;51.456;7.622;2023-04-23T00:19:40;36.10;;;24.50;;
15114;SDS011;7658;51.456;7.622;2023-04-23T00:22:06;34.30;;;23.00;;
15114;SDS011;7658;51.456;7.622;2023-04-23T00:24:32;33.73;;;23.27;;
15114;SDS011;7658;51.456;7.622;2023-04-23T00:27:00;33.00;;;22.80;;
15114;SDS011;7658;51.456;7.622;2023-04-23T00:29:26;33.57;;;23.67;;
15114;SDS011;7658;51.456;7.622;2023-04-23T00:31:52;30.80;;;21.73;;
15114;SDS011;7658;51.456;7.622;2023-04-23T00:34:18;35.67;;;23.63;;
15114;SDS011;7658;51.456;7.622;2023-04-23T00:36:43;35.63;;;23.97;;
15114;SDS011;7658;51.456;7.622;2023-04-23T00:39:09;36.00;;;24.65;;
15114;SDS011;7658;51.456;7.622;2023-04-23T00:41:35;35.13;;;23.60;;
15114;SDS011;7658;51.456;7.622;2023-04-23T00:44:01;34.70;;;24.70;;
15114;SDS011;7658;51.456;7.622;2023-04-23T00:46:27;37.90;;;24.53;;
15114;SDS011;7658;51.456;7.622;2023-04-23T00:48:53;35.83;;;23.77;;
15114;SDS011;7658;51.456;7.622;2023-04-23T00:51:22;35.13;;;24.50;;
15114;SDS011;7658;51.456;7.622;2023-04-23T00:53:49;36.47;;;24.87;;
15114;SDS011;7658;51.456;7.622;2023-04-23T00:56:14;37.40;;;25.37;;
15114;SDS011;7658;51.456;7.622;2023-04-23T00:58:42;34.80;;;23.37;;
15114;SDS011;7658;51.456;7.622;2023-04-23T01:01:08;36.53;;;25.03;;
15114;SDS011;7658;51.456;7.622;2023-04-23T01:03:36;36.07;;;24.90;;
15114;SDS011;7658;51.456;7.622;2023-04-23T01:06:05;40.13;;;25.00;;
15114;SDS011;7658;51.456;7.622;2023-04-23T01:08:31;37.43;;;25.77;;
15114;SDS011;7658;51.456;7.622;2023-04-23T01:10:58;41.53;;;25.60;;
15114;SDS011;7658;51.456;7.622;2023-04-23T01:13:24;40.13;;;26.63;;
15114;SDS011;7658;51.456;7.622;2023-04-23T01:15:53;39.63;;;24.97;;
15114;SDS011;7658;51.456;7.622;2023-04-23T01:18:20;42.60;;;26.73;;
15114;SDS011;7658;51.456;7.622;2023-04-23T01:20:47;40.70;;;27.40;;
15114;SDS011;7658;51.456;7.622;2023-04-23T01:23:14;42.33;;;26.10;;
15114;SDS011;7658;51.456;7.622;2023-04-23T01:25:40;39.07;;;25.43;;
15114;SDS011;7658;51.456;7.622;2023-04-23T01:28:08;36.90;;;24.77;;
15114;SDS011;7658;51.456;7.622;2023-04-23T01:30:34;39.87;;;25.97;;
15114;SDS011;7658;51.456;7.622;2023-04-23T01:33:01;36.67;;;25.17;;
15114;SDS011;7658;51.456;7.622;2023-04-23T01:35:28;36.97;;;25.40;;
15114;SDS011;7658;51.456;7.622;2023-04-23T01:37:55;35.70;;;23.93;;
15114;SDS011;7658;51.456;7.622;2023-04-23T01:40:23;39.57;;;25.13;;
15114;SDS011;7658;51.456;7.622;2023-04-23T01:42:48;39.73;;;25.77;;
15114;SDS011;7658;51.456;7.622;2023-04-23T01:45:15;35.83;;;24.77;;
15114;SDS011;7658;51.456;7.622;2023-04-23T01:47:43;37.53;;;25.20;;
15114;SDS011;7658;51.456;7.622;2023-04-23T01:50:10;41.28;;;26.63;;
15114;SDS011;7658;51.456;7.622;2023-04-23T01:52:35;38.77;;;26.10;;
15114;SDS011;7658;51.456;7.622;2023-04-23T01:55:01;39.77;;;25.03;;
15114;SDS011;7658;51.456;7.622;2023-04-23T01:57:27;37.80;;;25.42;;
15114;SDS011;7658;51.456;7.622;2023-04-23T01:59:55;38.33;;;24.67;;
15114;SDS011;7658;51.456;7.622;2023-04-23T02:02:32;38.90;;;26.00;;
15114;SDS011;7658;51.456;7.622;2023-04-23T02:04:59;37.67;;;24.73;;
15114;SDS011;7658;51.456;7.622;2023-04-23T02:07:33;35.53;;;24.30;;
15114;SDS011;7658;51.456;7.622;2023-04-23T02:09:59;40.53;;;26.37;;
15114;SDS011;7658;51.456;7.622;2023-04-23T02:12:25;38.33;;;25.00;;
15114;SDS011;7658;51.456;7.622;2023-04-23T02:14:51;36.30;;;24.03;;
15114;SDS011;7658;51.456;7.622;2023-04-23T02:17:18;39.85;;;25.08;;
15114;SDS011;7658;51.456;7.622;2023-04-23T02:19:45;37.30;;;25.13;;
15114;SDS011;7658;51.456;7.622;2023-04-23T02:22:11;38.75;;;25.13;;
15114;SDS011;7658;51.456;7.622;2023-04-23T02:24:37;37.37;;;24.47;;
15114;SDS011;7658;51.456;7.622;2023-04-23T02:27:03;40.20;;;24.57;;
15114;SDS011;7658;51.456;7.622;2023-04-23T02:29:29;39.53;;;25.20;;
15114;SDS011;7658;51.456;7.622;2023-04-23T02:31:55;37.53;;;24.57;;
15114;SDS011;7658;51.456;7.622;2023-04-23T02:34:20;33.83;;;22.83;;
15114;SDS011;7658;51.456;7.622;2023-04-23T02:36:46;33.97;;;23.13;;
15114;SDS011;7658;51.456;7.622;2023-04-23T02:39:12;36.47;;;23.58;;
15114;SDS011;7658;51.456;7.622;2023-04-23T02:41:37;37.90;;;23.92;;
15114;SDS011;7658;51.456;7.622;2023-04-23T02:44:03;34.40;;;22.95;;
15114;SDS011;7658;51.456;7.622;2023-04-23T02:46:29;37.10;;;24.57;;
15114;SDS011;7658;51.456;7.622;2023-04-23T02:48:55;33.88;;;23.50;;
15114;SDS011;7658;51.456;7.622;2023-04-23T02:51:21;33.65;;;22.48;;
15114;SDS011;7658;51.456;7.622;2023-04-23T02:53:47;30.08;;;22.15;;
15114;SDS011;7658;51.456;7.622;2023-04-23T02:56:13;34.88;;;23.65;;
15114;SDS011;7658;51.456;7.622;2023-04-23T02:58:38;32.78;;;22.08;;
15114;SDS011;7658;51.456;7.622;2023-04-23T03:01:05;32.88;;;22.70;;
15114;SDS011;7658;51.456;7.622;2023-04-23T03:03:31;29.63;;;20.70;;
15114;SDS011;7658;51.456;7.622;2023-04-23T03:05:58;31.80;;;21.10;;
15114;SDS011;7658;51.456;7.622;2023-04-23T03:08:25;30.58;;;20.88;;
15114;SDS011;7658;51.456;7.622;2023-04-23T03:10:51;30.02;;;21.13;;
15114;SDS011;7658;51.456;7.622;2023-04-23T03:13:17;29.52;;;20.35;;
15114;SDS011;7658;51.456;7.622;2023-04-23T03:15:43;30.92;;;21.50;;
15114;SDS011;7658;51.456;7.622;2023-04-23T03:18:08;25.60;;;18.70;;
15114;SDS011;7658;51.456;7.622;2023-04-23T03:20:35;27.95;;;20.13;;
15114;SDS011;7658;51.456;7.622;2023-04-23T03:23:01;31.02;;;20.42;;
15114;SDS011;7658;51.456;7.622;2023-04-23T03:25:30;27.95;;;19.92;;
15114;SDS011;7658;51.456;7.622;2023-04-23T03:27:56;28.17;;;19.25;;
15114;SDS011;7658;51.456;7.622;2023-04-23T03:30:22;32.63;;;21.20;;
15114;SDS011;7658;51.456;7.622;2023-04-23T03:32:49;25.73;;;18.67;;
15114;SDS011;7658;51.456;7.622;2023-04-23T03:35:15;27.02;;;19.35;;
15114;SDS011;7658;51.456;7.622;2023-04-23T03:37:41;27.50;;;19.27;;
15114;SDS011;7658;51.456;7.622;2023-04-23T03:40:07;28.48;;;18.98;;
15114;SDS011;7658;51.456;7.622;2023-04-23T03:42:34;27.70;;;18.85;;
15114;SDS011;7658;51.456;7.622;2023-04-23T03:44:59;24.80;;;18.65;;
15114;SDS011;7658;51.456;7.622;2023-04-23T03:47:25;25.52;;;17.90;;
15114;SDS011;7658;51.456;7.622;2023-04-23T03:49:52;27.85;;;19.77;;
15114;SDS011;7658;51.456;7.622;2023-04-23T03:52:18;28.08;;;19.13;;
15114;SDS011;7658;51.456;7.622;2023-04-23T03:54:44;27.13;;;18.35;;
15114;SDS011;7658;51.456;7.622;2023-04-23T03:57:10;24.63;;;17.60;;
15114;SDS011;7658;51.456;7.622;2023-04-23T03:59:38;24.67;;;17.42;;
15114;SDS011;7658;51.456;7.622;2023-04-23T04:02:04;27.23;;;19.08;;
15114;SDS011;7658;51.456;7.622;2023-04-23T04:04:30;23.05;;;17.50;;
15114;SDS011;7658;51.456;7.622;2023-04-23T04:06:56;27.60;;;19.25;;
15114;SDS011;7658;51.456;7.622;2023-04-23T04:09:24;27.23;;;18.95;;
15114;SDS011;7658;51.456;7.622;2023-04-23T04:11:51;27.70;;;18.15;;
15114;SDS011;7658;51.456;7.622;2023-04-23T04:14:18;26.50;;;18.40;;
15114;SDS011;7658;51.456;7.622;2023-04-23T04:16:44;28.65;;;19.55;;
15114;SDS011;7658;51.456;7.622;2023-04-23T04:19:10;24.33;;;17.83;;
15114;SDS011;7658;51.456;7.622;2023-04-23T04:21:36;25.27;;;17.95;;
15114;SDS011;7658;51.456;7.622;2023-04-23T04:24:02;25.97;;;18.17;;
15114;SDS011;7658;51.456;7.622;2023-04-23T04:26:29;25.30;;;17.83;;
15114;SDS011;7658;51.456;7.622;2023-04-23T04:29:04;27.33;;;18.88;;
15114;SDS011;7658;51.456;7.622;2023-04-23T04:31:30;28.42;;;20.40;;
15114;SDS011;7658;51.456;7.622;2023-04-23T04:33:57;29.40;;;19.67;;
15114;SDS011;7658;51.456;7.622;2023-04-23T04:36:23;28.50;;;19.80;;
15114;SDS011;7658;51.456;7.622;2023-04-23T04:38:51;20.47;;;16.37;;
15114;SDS011;7658;51.456;7.622;2023-04-23T04:41:20;25.30;;;18.00;;
15114;SDS011;7658;51.456;7.622;2023-04-23T04:43:46;27.97;;;18.93;;
15114;SDS011;7658;51.456;7.622;2023-04-23T04:46:12;26.37;;;18.63;;
15114;SDS011;7658;51.456;7.622;2023-04-23T04:48:39;28.60;;;19.73;;
15114;SDS011;7658;51.456;7.622;2023-04-23T04:51:05;28.40;;;19.13;;
15114;SDS011;7658;51.456;7.622;2023-04-23T04:53:31;28.02;;;19.50;;
15114;SDS011;7658;51.456;7.622;2023-04-23T04:55:58;27.23;;;19.00;;
15114;SDS011;7658;51.456;7.622;2023-04-23T04:58:23;32.17;;;20.00;;
15114;SDS011;7658;51.456;7.622;2023-04-23T05:00:49;28.48;;;20.55;;
15114;SDS011;7658;51.456;7.622;2023-04-23T05:03:19;24.77;;;18.53;;
15114;SDS011;7658;51.456;7.622;2023-04-23T05:05:45;27.03;;;18.37;;
15114;SDS011;7658;51.456;7.622;2023-04-23T05:08:12;28.83;;;18.73;;
15114;SDS011;7658;51.456;7.622;2023-04-23T05:10:41;27.52;;;19.90;;
15114;SDS011;7658;51.456;7.622;2023-04-23T05:13:08;26.10;;;18.70;;
15114;SDS011;7658;51.456;7.622;2023-04-23T05:15:33;28.73;;;18.63;;
15114;SDS011;7658;51.456;7.622;2023-04-23T05:18:01;29.03;;;20.27;;
15114;SDS011;7658;51.456;7.622;2023-04-23T05:20:27;32.17;;;20.83;;
15114;SDS011;7658;51.456;7.622;2023-04-23T05:22:53;29.45;;;19.50;;
15114;SDS011;7658;51.456;7.622;2023-04-23T05:25:19;28.20;;;19.20;;
15114;SDS011;7658;51.456;7.622;2023-04-23T05:27:45;31.55;;;20.92;;
15114;SDS011;7658;51.456;7.622;2023-04-23T05:30:10;27.70;;;20.10;;
15114;SDS011;7658;51.456;7.622;2023-04-23T05:32:36;28.05;;;20.08;;
15114;SDS011;7658;51.456;7.622;2023-04-23T05:35:03;27.38;;;20.00;;
15114;SDS011;7658;51.456;7.622;2023-04-23T05:37:30;27.43;;;18.83;;
15114;SDS011;7658;51.456;7.622;2023-04-23T05:39:56;28.03;;;19.10;;
15114;SDS011;7658;51.456;7.622;2023-04-23T05:42:22;28.83;;;19.93;;
15114;SDS011;7658;51.456;7.622;2023-04-23T05:44:48;29.98;;;21.40;;
15114;SDS011;7658;51.456;7.622;2023-04-23T05:47:14;29.10;;;20.77;;
15114;SDS011;7658;51.456;7.622;2023-04-23T05:49:39;28.20;;;20.10;;
15114;SDS011;7658;51.456;7.622;2023-04-23T05:52:05;27.67;;;19.53;;
15114;SDS011;7658;51.456;7.622;2023-04-23T05:54:31;30.23;;;20.13;;
15114;SDS011;7658;51.456;7.622;2023-04-23T05:56:57;27.90;;;18.17;;
15114;SDS011;7658;51.456;7.622;2023-04-23T05:59:23;27.37;;;19.20;;
15114;SDS011;7658;51.456;7.622;2023-04-23T06:01:49;26.27;;;18.38;;
15114;SDS011;7658;51.456;7.622;2023-04-23T06:04:15;27.23;;;19.25;;
15114;SDS011;7658;51.456;7.622;2023-04-23T06:06:41;27.02;;;18.00;;
15114;SDS011;7658;51.456;7.622;2023-04-23T06:09:07;27.00;;;19.27;;
15114;SDS011;7658;51.456;7.622;2023-04-23T06:11:33;26.15;;;18.58;;
15114;SDS011;7658;51.456;7.622;2023-04-23T06:14:00;25.98;;;18.75;;
15114;SDS011;7658;51.456;7.622;2023-04-23T06:16:26;26.10;;;18.10;;
15114;SDS011;7658;51.456;7.622;2023-04-23T06:18:52;24.90;;;18.77;;
15114;SDS011;7658;51.456;7.622;2023-04-23T06:21:20;25.38;;;18.17;;
15114;SDS011;7658;51.456;7.622;2023-04-23T06:23:46;25.98;;;18.88;;
15114;SDS011;7658;51.456;7.622;2023-04-23T06:26:12;26.42;;;18.80;;
15114;SDS011;7658;51.456;7.622;2023-04-23T06:28:40;24.05;;;18.10;;
15114;SDS011;7658;51.456;7.622;2023-04-23T06:31:06;25.40;;;18.15;;
15114;SDS011;7658;51.456;7.622;2023-04-23T06:33:33;22.02;;;17.48;;
15114;SDS011;7658;51.456;7.622;2023-04-23T06:36:00;23.58;;;16.88;;
15114;SDS011;7658;51.456;7.622;2023-04-23T06:38:30;21.02;;;16.10;;
15114;SDS011;7658;51.456;7.622;2023-04-23T06:40:56;20.67;;;15.43;;
15114;SDS011;7658;51.456;7.622;2023-04-23T06:43:22;20.85;;;15.70;;
15114;SDS011;7658;51.456;7.622;2023-04-23T06:45:48;19.88;;;15.02;;
15114;SDS011;7658;51.456;7.622;2023-04-23T06:48:14;18.75;;;13.88;;
15114;SDS011;7658;51.456;7.622;2023-04-23T06:50:40;20.13;;;15.50;;
15114;SDS011;7658;51.456;7.622;2023-04-23T06:53:06;14.77;;;11.93;;
15114;SDS011;7658;51.456;7.622;2023-04-23T06:55:32;16.23;;;11.60;;
15114;SDS011;7658;51.456;7.622;2023-04-23T06:57:58;16.08;;;11.93;;
15114;SDS011;7658;51.456;7.622;2023-04-23T07:00:24;15.32;;;11.75;;
15114;SDS011;7658;51.456;7.622;2023-04-23T07:02:50;14.63;;;11.45;;
15114;SDS011;7658;51.456;7.622;2023-04-23T07:05:16;14.48;;;11.57;;
15114;SDS011;7658;51.456;7.622;2023-04-23T07:07:43;15.02;;;11.30;;
15114;SDS011;7658;51.456;7.622;2023-04-23T07:10:09;12.73;;;9.93;;
15114;SDS011;7658;51.456;7.622;2023-04-23T07:12:36;13.73;;;11.43;;
15114;SDS011;7658;51.456;7.622;2023-04-23T07:15:03;13.25;;;11.00;;
15114;SDS011;7658;51.456;7.622;2023-04-23T07:17:30;15.45;;;12.30;;
15114;SDS011;7658;51.456;7.622;2023-04-23T07:19:56;13.27;;;10.63;;
15114;SDS011;7658;51.456;7.622;2023-04-23T07:22:25;16.55;;;10.35;;
15114;SDS011;7658;51.456;7.622;2023-04-23T07:24:51;11.60;;;9.55;;
15114;SDS011;7658;51.456;7.622;2023-04-23T07:27:17;14.43;;;10.10;;
15114;SDS011;7658;51.456;7.622;2023-04-23T07:29:43;12.93;;;9.32;;
15114;SDS011;7658;51.456;7.622;2023-04-23T07:32:09;12.10;;;9.35;;
15114;SDS011;7658;51.456;7.622;2023-04-23T07:34:35;12.80;;;9.07;;
15114;SDS011;7658;51.456;7.622;2023-04-23T07:37:01;12.35;;;8.63;;
15114;SDS011;7658;51.456;7.622;2023-04-23T07:39:27;12.68;;;8.93;;
15114;SDS011;7658;51.456;7.622;2023-04-23T07:41:53;11.05;;;9.50;;
15114;SDS011;7658;51.456;7.622;2023-04-23T07:44:20;10.70;;;8.77;;
15114;SDS011;7658;51.456;7.622;2023-04-23T07:46:46;11.07;;;8.90;;
15114;SDS011;7658;51.456;7.622;2023-04-23T07:49:12;10.52;;;8.48;;
15114;SDS011;7658;51.456;7.622;2023-04-23T07:51:40;9.88;;;7.82;;
15114;SDS011;7658;51.456;7.622;2023-04-23T07:54:10;11.93;;;8.10;;
15114;SDS011;7658;51.456;7.622;2023-04-23T07:56:36;10.93;;;8.20;;
15114;SDS011;7658;51.456;7.622;2023-04-23T07:59:01;9.45;;;8.25;;
15114;SDS011;7658;51.456;7.622;2023-04-23T08:01:30;12.48;;;7.82;;
15114;SDS011;7658;51.456;7.622;2023-04-23T08:03:56;10.07;;;8.13;;
15114;SDS011;7658;51.456;7.622;2023-04-23T08:06:24;12.25;;;7.85;;
15114;SDS011;7658;51.456;7.622;2023-04-23T08:08:51;9.25;;;8.23;;
15114;SDS011;7658;51.456;7.622;2023-04-23T08:11:17;8.18;;;6.57;;
15114;SDS011;7658;51.456;7.622;2023-04-23T08:13:43;10.02;;;6.80;;
15114;SDS011;7658;51.456;7.622;2023-04-23T08:16:09;8.20;;;6.90;;
15114;SDS011;7658;51.456;7.622;2023-04-23T08:18:35;8.02;;;7.07;;
15114;SDS011;7658;51.456;7.622;2023-04-23T08:21:00;10.07;;;6.70;;
15114;SDS011;7658;51.456;7.622;2023-04-23T08:23:26;8.48;;;6.38;;
15114;SDS011;7658;51.456;7.622;2023-04-23T08:25:52;9.07;;;6.40;;
15114;SDS011;7658;51.456;7.622;2023-04-23T08:28:18;9.43;;;5.97;;
15114;SDS011;7658;51.456;7.622;2023-04-23T08:30:44;11.93;;;7.03;;
15114;SDS011;7658;51.456;7.622;2023-04-23T08:33:10;9.27;;;6.28;;
15114;SDS011;7658;51.456;7.622;2023-04-23T08:35:36;7.53;;;5.70;;
15114;SDS011;7658;51.456;7.622;2023-04-23T08:38:02;8.48;;;6.22;;
15114;SDS011;7658;51.456;7.622;2023-04-23T08:40:29;6.07;;;5.47;;
15114;SDS011;7658;51.456;7.622;2023-04-23T08:43:05;5.97;;;5.38;;
15114;SDS011;7658;51.456;7.622;2023-04-23T08:45:40;9.82;;;5.03;;
15114;SDS011;7658;51.456;7.622;2023-04-23T08:48:09;6.70;;;4.15;;
15114;SDS011;7658;51.456;7.622;2023-04-23T08:50:36;7.50;;;4.80;;
15114;SDS011;7658;51.456;7.622;2023-04-23T08:53:06;8.68;;;5.38;;
15114;SDS011;7658;51.456;7.622;2023-04-23T08:55:32;10.10;;;5.22;;
15114;SDS011;7658;51.456;7.622;2023-04-23T08:57:59;8.68;;;5.80;;
15114;SDS011;7658;51.456;7.622;2023-04-23T09:00:26;6.15;;;4.68;;
15114;SDS011;7658;51.456;7.622;2023-04-23T09:02:53;6.88;;;4.90;;
15114;SDS011;7658;51.456;7.622;2023-04-23T09:05:19;6.43;;;5.22;;
15114;SDS011;7658;51.456;7.622;2023-04-23T09:07:45;6.53;;;5.13;;
15114;SDS011;7658;51.456;7.622;2023-04-23T09:10:11;8.98;;;5.68;;
15114;SDS011;7658;51.456;7.622;2023-04-23T09:12:39;6.90;;;5.00;;
15114;SDS011;7658;51.456;7.622;2023-04-23T09:15:07;6.38;;;4.60;;
15114;SDS011;7658;51.456;7.622;2023-04-23T09:17:40;7.82;;;4.75;;
15114;SDS011;7658;51.456;7.622;2023-04-23T09:20:08;7.43;;;4.03;;
15114;SDS011;7658;51.456;7.622;2023-04-23T09:22:47;6.03;;;4.53;;
15114;SDS011;7658;51.456;7.622;2023-04-23T09:25:20;6.50;;;4.07;;
15114;SDS011;7658;51.456;7.622;2023-04-23T09:27:48;7.80;;;3.80;;
15114;SDS011;7658;51.456;7.622;2023-04-23T09:30:16;10.68;;;4.82;;
15114;SDS011;7658;51.456;7.622;2023-04-23T09:32:43;5.90;;;4.00;;
15114;SDS011;7658;51.456;7.622;2023-04-23T09:35:14;10.02;;;4.43;;
15114;SDS011;7658;51.456;7.622;2023-04-23T09:37:41;6.00;;;4.15;;
15114;SDS011;7658;51.456;7.622;2023-04-23T09:40:17;5.32;;;3.80;;
15114;SDS011;7658;51.456;7.622;2023-04-23T09:42:48;7.07;;;3.72;;
15114;SDS011;7658;51.456;7.622;2023-04-23T09:45:14;9.52;;;4.10;;
15114;SDS011;7658;51.456;7.622;2023-04-23T09:47:47;7.72;;;3.90;;
15114;SDS011;7658;51.456;7.622;2023-04-23T09:50:13;7.25;;;3.80;;
15114;SDS011;7658;51.456;7.622;2023-04-23T09:52:39;4.35;;;3.22;;
15114;SDS011;7658;51.456;7.622;2023-04-23T09:55:05;7.43;;;3.67;;
15114;SDS011;7658;51.456;7.622;2023-04-23T09:57:39;6.13;;;3.60;;
15114;SDS011;7658;51.456;7.622;2023-04-23T10:00:12;6.78;;;3.60;;
15114;SDS011;7658;51.456;7.622;2023-04-23T10:02:46;4.80;;;3.60;;
15114;SDS011;7658;51.456;7.622;2023-04-23T10:05:19;6.72;;;3.97;;
15114;SDS011;7658;51.456;7.622;2023-04-23T10:07:47;3.42;;;3.13;;
15114;SDS011;7658;51.456;7.622;2023-04-23T10:10:16;4.57;;;3.35;;
15114;SDS011;7658;51.456;7.622;2023-04-23T10:12:43;4.57;;;3.28;;
15114;SDS011;7658;51.456;7.622;2023-04-23T10:15:10;3.55;;;3.10;;
15114;SDS011;7658;51.456;7.622;2023-04-23T10:17:37;6.50;;;2.92;;
15114;SDS011;7658;51.456;7.622;2023-04-23T10:20:04;5.22;;;3.15;;
15114;SDS011;7658;51.456;7.622;2023-04-23T10:22:32;8.75;;;3.42;;
15114;SDS011;7658;51.456;7.622;2023-04-23T10:24:59;3.58;;;2.90;;
15114;SDS011;7658;51.456;7.622;2023-04-23T10:27:29;5.80;;;3.08;;
15114;SDS011;7658;51.456;7.622;2023-04-23T10:29:56;5.68;;;2.97;;
15114;SDS011;7658;51.456;7.622;2023-04-23T10:32:22;4.05;;;2.70;;
15114;SDS011;7658;51.456;7.622;2023-04-23T10:34:48;3.67;;;3.08;;
15114;SDS011;7658;51.456;7.622;2023-04-23T10:37:15;3.83;;;3.35;;
15114;SDS011;7658;51.456;7.622;2023-04-23T10:39:43;2.97;;;2.72;;
15114;SDS011;7658;51.456;7.622;2023-04-23T10:42:14;5.05;;;2.90;;
15114;SDS011;7658;51.456;7.622;2023-04-23T10:44:41;5.57;;;3.15;;
15114;SDS011;7658;51.456;7.622;2023-04-23T10:47:11;4.15;;;2.95;;
15114;SDS011;7658;51.456;7.622;2023-04-23T10:49:39;3.10;;;2.80;;
15114;SDS011;7658;51.456;7.622;2023-04-23T10:52:16;5.45;;;3.28;;
15114;SDS011;7658;51.456;7.622;2023-04-23T10:54:43;6.05;;;2.90;;
15114;SDS011;7658;51.456;7.622;2023-04-23T10:57:13;3.60;;;2.90;;
15114;SDS011;7658;51.456;7.622;2023-04-23T10:59:40;3.03;;;2.60;;
15114;SDS011;7658;51.456;7.622;2023-04-23T11:02:17;4.32;;;2.90;;
15114;SDS011;7658;51.456;7.622;2023-04-23T11:05:00;3.22;;;2.83;;
15114;SDS011;7658;51.456;7.622;2023-04-23T11:07:31;4.15;;;2.58;;
15114;SDS011;7658;51.456;7.622;2023-04-23T11:09:58;4.63;;;2.85;;
15114;SDS011;7658;51.456;7.622;2023-04-23T11:15:08;4.50;;;3.00;;
15114;SDS011;7658;51.456;7.622;2023-04-23T11:20:07;3.20;;;2.60;;
15114;SDS011;7658;51.456;7.622;2023-04-23T11:22:41;6.07;;;2.70;;
15114;SDS011;7658;51.456;7.622;2023-04-23T11:25:09;4.75;;;2.90;;
15114;SDS011;7658;51.456;7.622;2023-04-23T11:27:40;4.78;;;2.90;;
15114;SDS011;7658;51.456;7.622;2023-04-23T11:30:17;4.55;;;2.88;;
15114;SDS011;7658;51.456;7.622;2023-04-23T11:32:45;3.22;;;2.88;;
15114;SDS011;7658;51.456;7.622;2023-04-23T11:35:13;6.53;;;2.90;;
15114;SDS011;7658;51.456;7.622;2023-04-23T11:37:39;3.58;;;2.80;;
15114;SDS011;7658;51.456;7.622;2023-04-23T11:40:06;4.20;;;2.78;;
15114;SDS011;7658;51.456;7.622;2023-04-23T11:42:44;4.88;;;2.90;;
15114;SDS011;7658;51.456;7.622;2023-04-23T11:47:52;5.07;;;2.92;;
15114;SDS011;7658;51.456;7.622;2023-04-23T11:52:48;3.70;;;3.08;;
15114;SDS011;7658;51.456;7.622;2023-04-23T11:55:14;4.93;;;3.10;;
15114;SDS011;7658;51.456;7.622;2023-04-23T11:57:42;3.28;;;2.58;;
15114;SDS011;7658;51.456;7.622;2023-04-23T12:00:16;3.20;;;2.90;;
15114;SDS011;7658;51.456;7.622;2023-04-23T12:02:51;3.67;;;2.50;;
15114;SDS011;7658;51.456;7.622;2023-04-23T12:05:21;2.72;;;2.53;;
15114;SDS011;7658;51.456;7.622;2023-04-23T12:08:05;3.08;;;2.78;;
15114;SDS011;7658;51.456;7.622;2023-04-23T12:15:50;2.80;;;2.60;;
15114;SDS011;7658;51.456;7.622;2023-04-23T12:18:17;2.90;;;2.30;;
15114;SDS011;7658;51.456;7.622;2023-04-23T12:20:43;4.22;;;2.53;;
15114;SDS011;7658;51.456;7.622;2023-04-23T12:23:10;3.05;;;2.50;;
15114;SDS011;7658;51.456;7.622;2023-04-23T12:25:36;3.92;;;2.42;;
15114;SDS011;7658;51.456;7.622;2023-04-23T12:28:05;2.33;;;2.00;;
15114;SDS011;7658;51.456;7.622;2023-04-23T12:30:33;2.10;;;2.00;;
15114;SDS011;7658;51.456;7.622;2023-04-23T12:33:09;2.25;;;2.08;;
15114;SDS011;7658;51.456;7.622;2023-04-23T12:35:36;2.75;;;2.22;;
15114;SDS011;7658;51.456;7.622;2023-04-23T12:38:19;2.58;;;2.38;;
15114;SDS011;7658;51.456;7.622;2023-04-23T12:40:52;2.30;;;2.10;;
15114;SDS011;7658;51.456;7.622;2023-04-23T12:43:21;2.55;;;2.30;;
15114;SDS011;7658;51.456;7.622;2023-04-23T12:45:47;2.55;;;2.10;;
15114;SDS011;7658;51.456;7.622;2023-04-23T12:48:14;2.97;;;2.30;;
15114;SDS011;7658;51.456;7.622;2023-04-23T12:50:40;3.92;;;2.30;;
15114;SDS011;7658;51.456;7.622;2023-04-23T12:53:06;2.08;;;1.95;;
15114;SDS011;7658;51.456;7.622;2023-04-23T12:55:32;2.20;;;2.00;;
15114;SDS011;7658;51.456;7.622;2023-04-23T12:57:58;2.17;;;1.98;;
15114;SDS011;7658;51.456;7.622;2023-04-23T13:00:25;2.55;;;2.22;;
15114;SDS011;7658;51.456;7.622;2023-04-23T13:02:51;2.03;;;1.92;;
15114;SDS011;7658;51.456;7.622;2023-04-23T13:05:16;2.92;;;2.08;;
15114;SDS011;7658;51.456;7.622;2023-04-23T13:07:44;2.47;;;2.13;;
15114;SDS011;7658;51.456;7.622;2023-04-23T13:10:10;3.03;;;2.40;;
15114;SDS011;7658;51.456;7.622;2023-04-23T13:12:35;2.72;;;2.15;;
15114;SDS011;7658;51.456;7.622;2023-04-23T13:15:01;5.05;;;2.05;;
15114;SDS011;7658;51.456;7.622;2023-04-23T13:17:28;3.25;;;2.13;;
15114;SDS011;7658;51.456;7.622;2023-04-23T13:19:54;3.63;;;2.30;;
15114;SDS011;7658;51.456;7.622;2023-04-23T13:22:21;5.70;;;2.30;;
15114;SDS011;7658;51.456;7.622;2023-04-23T13:24:52;3.65;;;2.08;;
15114;SDS011;7658;51.456;7.622;2023-04-23T13:27:19;4.20;;;2.30;;
15114;SDS011;7658;51.456;7.622;2023-04-23T13:29:44;2.58;;;2.00;;
15114;SDS011;7658;51.456;7.622;2023-04-23T13:32:10;2.45;;;1.90;;
15114;SDS011;7658;51.456;7.622;2023-04-23T13:34:36;3.50;;;2.10;;
15114;SDS011;7658;51.456;7.622;2023-04-23T13:37:02;3.65;;;2.10;;
15114;SDS011;7658;51.456;7.622;2023-04-23T13:39:30;1.75;;;1.63;;
15114;SDS011;7658;51.456;7.622;2023-04-23T13:41:56;3.30;;;1.83;;
15114;SDS011;7658;51.456;7.622;2023-04-23T13:44:34;4.38;;;1.95;;
15114;SDS011;7658;51.456;7.622;2023-04-23T13:47:04;3.70;;;1.83;;
15114;SDS011;7658;51.456;7.622;2023-04-23T13:49:30;2.05;;;1.80;;
15114;SDS011;7658;51.456;7.622;2023-04-23T13:51:59;2.45;;;1.67;;
15114;SDS011;7658;51.456;7.622;2023-04-23T13:54:31;3.63;;;1.88;;
15114;SDS011;7658;51.456;7.622;2023-04-23T13:56:57;5.80;;;2.00;;
15114;SDS011;7658;51.456;7.622;2023-04-23T13:59:28;4.13;;;1.77;;
15114;SDS011;7658;51.456;7.622;2023-04-23T14:02:06;1.92;;;1.70;;
15114;SDS011;7658;51.456;7.622;2023-04-23T14:04:32;2.55;;;1.90;;
15114;SDS011;7658;51.456;7.622;2023-04-23T14:06:58;2.35;;;1.85;;
15114;SDS011;7658;51.456;7.622;2023-04-23T14:09:23;2.45;;;1.70;;
15114;SDS011;7658;51.456;7.622;2023-04-23T14:11:49;4.65;;;1.88;;
15114;SDS011;7658;51.456;7.622;2023-04-23T14:14:15;4.93;;;1.90;;
15114;SDS011;7658;51.456;7.622;2023-04-23T14:16:42;4.03;;;2.13;;
15114;SDS011;7658;51.456;7.622;2023-04-23T14:19:07;5.15;;;2.00;;
15114;SDS011;7658;51.456;7.622;2023-04-23T14:21:33;3.92;;;1.80;;
15114;SDS011;7658;51.456;7.622;2023-04-23T14:24:01;1.95;;;1.70;;
15114;SDS011;7658;51.456;7.622;2023-04-23T14:26:34;1.80;;;1.70;;
15114;SDS011;7658;51.456;7.622;2023-04-23T14:29:01;1.90;;;1.80;;
15114;SDS011;7658;51.456;7.622;2023-04-23T14:31:32;1.85;;;1.70;;
15114;SDS011;7658;51.456;7.622;2023-04-23T14:33:59;4.00;;;2.17;;
15114;SDS011;7658;51.456;7.622;2023-04-23T14:36:25;2.58;;;1.70;;
15114;SDS011;7658;51.456;7.622;2023-04-23T14:38:50;3.28;;;2.05;;
15114;SDS011;7658;51.456;7.622;2023-04-23T14:41:16;4.05;;;2.00;;
15114;SDS011;7658;51.456;7.622;2023-04-23T14:43:42;2.00;;;1.80;;
15114;SDS011;7658;51.456;7.622;2023-04-23T14:46:08;2.38;;;1.92;;
15114;SDS011;7658;51.456;7.622;2023-04-23T14:48:33;2.00;;;1.80;;
15114;SDS011;7658;51.456;7.622;2023-04-23T14:50:59;3.25;;;1.92;;
15114;SDS011;7658;51.456;7.622;2023-04-23T14:53:25;3.53;;;2.20;;
15114;SDS011;7658;51.456;7.622;2023-04-23T14:55:51;3.08;;;1.92;;
15114;SDS011;7658;51.456;7.622;2023-04-23T14:58:17;4.80;;;2.30;;
15114;SDS011;7658;51.456;7.622;2023-04-23T15:00:43;4.03;;;1.80;;
15114;SDS011;7658;51.456;7.622;2023-04-23T15:03:08;2.25;;;1.90;;
15114;SDS011;7658;51.456;7.622;2023-04-23T15:05:38;2.65;;;2.20;;